Clearwater, South Carolina
Current Conditions -  °F | °C
As of 7:53 PM on Monday 22 Dec 2014 (Local Time) from KDNL Reporting Station
Haze Haze  
Wind Chill: 41°   Ceiling: 300
Heat Index: 46°   Visibility: 4mi
Dew Point: 44°   Wind: 9mph
Humidity: 93%   Direction: 60°ENE
Pressure: 29.98"   Gusts: NA
Location:  33.51°N, 81.91°W
Report Text: KDNL 230053Z AUTO 06008KT 4SM BR OVC003 08/07 A2998 RMK AO2 SLP152 T00780067
Loading
Personal Weather Stations






























Interactive Weather Map New forecast layout! Learn more

10-Day Weather Forecast

Advertisements
Track Severe Weather on mobile